Time;durP1;ratioP1;P1;durP2;ratioP2;P2;SDS_P1;SDS_P2;PMS_P1;PMS_P2;Temp;Humidity;BMP_temperature;BMP_pressure;BME280_temperature;BME280_humidity;BME280_pressure;Samples;Min_cycle;Max_cycle;Signal;HPM_P1;HPM_P2
2021/11/14 00:00:26;;;;;;;328.88;42.28;;;;;;;8.03;100.00;101652.13;10584889;28;20043;-60
2021/11/14 00:05:28;;;;;;;42.95;23.25;;;;;;;8.21;100.00;101651.50;10584931;28;20052;-59
2021/11/14 00:10:31;;;;;;;78.63;27.02;;;;;;;8.29;100.00;101651.28;10584456;28;20040;-59
2021/11/14 00:15:34;;;;;;;273.50;41.63;;;;;;;8.16;100.00;101651.66;10584658;28;20054;-60
2021/11/14 00:20:37;;;;;;;267.45;39.30;;;;;;;8.31;100.00;101652.06;10583922;28;20491;-60
2021/11/14 00:25:40;;;;;;;100.00;31.40;;;;;;;8.27;100.00;101659.16;10584039;28;20082;-60
2021/11/14 00:30:43;;;;;;;87.07;30.88;;;;;;;8.33;100.00;101660.69;10583813;28;20043;-59
2021/11/14 00:35:48;;;;;;;198.23;36.70;;;;;;;8.32;100.00;101667.66;10583679;28;20050;-59
2021/11/14 00:40:51;;;;;;;139.35;34.00;;;;;;;8.33;100.00;101684.16;10582988;28;20396;-60
2021/11/14 00:45:53;;;;;;;69.60;29.25;;;;;;;8.36;100.00;101676.25;10583381;28;20055;-60
2021/11/14 00:50:55;;;;;;;139.90;32.60;;;;;;;8.21;100.00;101681.97;10582714;28;20498;-60
2021/11/14 00:55:58;;;;;;;74.78;31.77;;;;;;;8.33;100.00;101690.22;10565705;28;20054;-60
2021/11/14 01:01:01;;;;;;;238.13;53.22;;;;;;;8.08;100.00;101682.38;10582259;28;20047;-59
2021/11/14 01:06:03;;;;;;;105.60;39.85;;;;;;;8.32;100.00;101691.16;10582952;28;20109;-60
2021/11/14 01:11:08;;;;;;;204.07;43.65;;;;;;;8.23;100.00;101693.22;10582377;28;20051;-60
2021/11/14 01:16:15;;;;;;;137.55;35.42;;;;;;;8.17;100.00;101700.34;10581918;28;20522;-60
2021/11/14 01:21:17;;;;;;;89.00;36.03;;;;;;;8.00;100.00;101706.09;10581988;28;20403;-60
2021/11/14 01:26:20;;;;;;;106.13;38.67;;;;;;;7.94;100.00;101708.91;10581843;28;20483;-59
2021/11/14 01:31:22;;;;;;;88.05;38.35;;;;;;;7.92;100.00;101717.69;10581901;28;20051;-60
2021/11/14 01:36:25;;;;;;;85.60;36.22;;;;;;;8.11;100.00;101718.78;10581886;28;20088;-60
2021/11/14 01:41:27;;;;;;;68.03;32.28;;;;;;;8.03;100.00;101723.38;10581443;28;20514;-59
2021/11/14 01:46:30;;;;;;;70.93;33.13;;;;;;;8.04;100.00;101726.88;10563789;28;20044;-60
2021/11/14 01:51:33;;;;;;;54.63;27.67;;;;;;;8.15;100.00;101741.28;10581160;28;20444;-60
2021/11/14 01:56:35;;;;;;;48.33;26.98;;;;;;;8.30;100.00;101745.13;10581669;28;20047;-60
2021/11/14 02:01:37;;;;;;;72.45;29.75;;;;;;;8.28;100.00;101735.66;10580940;28;20047;-59
2021/11/14 02:06:46;;;;;;;79.00;32.33;;;;;;;8.13;100.00;101732.63;10563710;28;20075;-60
2021/11/14 02:11:48;;;;;;;61.47;30.60;;;;;;;8.16;100.00;101742.97;10584572;28;20376;-60
2021/11/14 02:16:51;;;;;;;81.50;34.67;;;;;;;8.08;100.00;101747.56;10589546;28;20072;-60
2021/11/14 02:21:54;;;;;;;139.35;41.85;;;;;;;8.21;100.00;101749.81;10588900;28;20437;-59
2021/11/14 02:26:56;;;;;;;92.05;31.40;;;;;;;8.29;100.00;101753.03;10588699;28;20059;-61
2021/11/14 02:31:58;;;;;;;75.53;32.65;;;;;;;8.17;100.00;101762.94;10588498;28;20050;-59
2021/11/14 02:37:01;;;;;;;60.88;30.58;;;;;;;8.31;100.00;101766.88;10570774;28;20039;-60
2021/11/14 02:42:04;;;;;;;71.53;31.10;;;;;;;8.25;100.00;101769.66;10588301;28;20059;-60
2021/11/14 02:47:06;;;;;;;87.18;34.15;;;;;;;8.11;100.00;101777.94;10569982;28;20047;-59
2021/11/14 02:52:09;;;;;;;101.90;36.03;;;;;;;8.18;100.00;101782.03;10587598;28;20048;-60
2021/11/14 02:57:11;;;;;;;146.57;37.88;;;;;;;8.27;100.00;101789.59;10587830;28;20051;-60
2021/11/14 03:02:13;;;;;;;112.43;37.70;;;;;;;8.45;100.00;101789.94;10587250;28;20046;-60
2021/11/14 03:07:16;;;;;;;98.78;37.08;;;;;;;8.45;100.00;101787.31;10587440;28;20050;-61
2021/11/14 03:12:19;;;;;;;84.90;36.30;;;;;;;8.48;100.00;101797.66;10586625;28;20047;-60
2021/11/14 03:17:21;;;;;;;99.13;35.75;;;;;;;8.43;100.00;101800.41;10587385;28;20043;-59
2021/11/14 03:22:24;;;;;;;109.45;39.33;;;;;;;8.30;100.00;101805.13;10586322;28;20059;-60
2021/11/14 03:27:26;;;;;;;118.95;42.33;;;;;;;8.41;100.00;101801.34;10567892;28;20054;-59
2021/11/14 03:32:29;;;;;;;104.18;40.70;;;;;;;8.41;100.00;101811.78;10585896;28;20047;-60
2021/11/14 03:37:31;;;;;;;99.10;39.67;;;;;;;8.57;100.00;101812.16;10585574;28;20476;-60
2021/11/14 03:42:34;;;;;;;86.38;39.05;;;;;;;8.59;100.00;101812.97;10585735;28;20051;-60
2021/11/14 03:47:38;;;;;;;148.90;47.97;;;;;;;8.56;100.00;101826.97;10567635;28;20043;-60
2021/11/14 03:52:44;;;;;;;88.63;38.10;;;;;;;8.44;100.00;101829.97;10567013;28;20063;-59
2021/11/14 03:57:47;;;;;;;113.38;44.55;;;;;;;8.36;100.00;101838.03;10585878;28;20130;-61
2021/11/14 04:02:51;;;;;;;105.72;45.50;;;;;;;8.37;100.00;101844.94;10585579;28;20058;-61
2021/11/14 04:07:53;;;;;;;87.32;39.17;;;;;;;8.50;100.00;101848.88;10585137;28;20051;-59
2021/11/14 04:12:56;;;;;;;116.22;41.17;;;;;;;8.63;100.00;101851.13;10584308;28;20067;-60
2021/11/14 04:17:59;;;;;;;140.30;43.72;;;;;;;8.48;100.00;101855.09;10584830;28;20050;-60
2021/11/14 04:23:02;;;;;;;99.45;41.03;;;;;;;8.40;100.00;101855.28;10583996;28;20399;-59
2021/11/14 04:28:06;;;;;;;73.65;35.60;;;;;;;8.65;100.00;101859.75;10584248;28;20054;-60
2021/11/14 04:33:09;;;;;;;146.57;44.45;;;;;;;8.55;100.00;101860.03;10582892;28;20048;-59
2021/11/14 04:38:12;;;;;;;105.65;40.53;;;;;;;8.62;100.00;101858.09;10583532;28;20051;-60
2021/11/14 04:43:17;;;;;;;104.78;44.95;;;;;;;8.61;100.00;101863.34;10583359;28;20051;-60
2021/11/14 04:48:20;;;;;;;148.05;47.00;;;;;;;8.55;100.00;101862.66;10582884;28;20483;-60
2021/11/14 04:53:23;;;;;;;108.03;42.58;;;;;;;8.60;100.00;101864.28;10583156;28;20055;-60
2021/11/14 04:58:25;;;;;;;92.15;39.17;;;;;;;8.60;100.00;101874.72;10582815;28;20040;-59
2021/11/14 05:03:27;;;;;;;119.63;41.85;;;;;;;8.54;100.00;101873.16;10582738;28;20054;-60
2021/11/14 05:08:30;;;;;;;194.27;47.38;;;;;;;8.60;100.00;101891.22;10582552;28;20044;-59
2021/11/14 05:13:32;;;;;;;82.78;36.80;;;;;;;8.70;100.00;101895.25;10564096;28;20403;-60
2021/11/14 05:18:35;;;;;;;182.93;47.03;;;;;;;8.58;100.00;101900.03;10582288;28;20044;-60
2021/11/14 05:23:38;;;;;;;83.63;37.53;;;;;;;8.51;100.00;101908.03;10581909;28;20044;-60
2021/11/14 05:28:40;;;;;;;88.63;38.25;;;;;;;8.59;100.00;101913.03;10582030;28;20044;-59
2021/11/14 05:33:43;;;;;;;89.00;34.92;;;;;;;8.43;100.00;101917.84;10563602;28;20054;-59
2021/11/14 05:38:45;;;;;;;131.55;41.17;;;;;;;8.52;100.00;101922.81;10582237;28;20051;-59
2021/11/14 05:43:48;;;;;;;85.63;35.92;;;;;;;8.37;100.00;101931.91;10563835;28;20058;-61
2021/11/14 05:48:51;;;;;;;97.10;37.83;;;;;;;8.37;100.00;101937.13;10589504;28;20145;-60
2021/11/14 05:53:54;;;;;;;90.78;36.53;;;;;;;8.47;100.00;101947.31;10590185;28;20048;-59
2021/11/14 06:09:13;;;;;;;92.72;36.30;;;;;;;8.38;100.00;101967.53;10590190;28;20048;-59
2021/11/14 06:14:15;;;;;;;128.32;43.65;;;;;;;8.42;100.00;101964.84;10589140;28;20498;-60
2021/11/14 06:19:18;;;;;;;155.95;44.78;;;;;;;8.51;100.00;101978.50;10589244;28;20051;-60
2021/11/14 06:24:20;;;;;;;154.70;46.60;;;;;;;8.48;100.00;101972.53;10589029;28;20082;-59
2021/11/14 06:29:22;;;;;;;87.20;37.13;;;;;;;8.63;100.00;101981.66;10588674;28;20054;-60
2021/11/14 06:34:25;;;;;;;72.45;32.45;;;;;;;8.54;100.00;101988.03;10588584;28;20051;-60
2021/11/14 06:39:27;;;;;;;91.00;37.40;;;;;;;8.45;100.00;101996.09;10588122;28;20052;-60
2021/11/14 06:44:29;;;;;;;90.97;37.63;;;;;;;8.43;100.00;102010.97;10588344;28;20047;-60
2021/11/14 06:49:32;;;;;;;99.25;39.50;;;;;;;8.45;100.00;102019.59;10587716;28;20479;-60
2021/11/14 06:54:35;;;;;;;76.47;35.67;;;;;;;8.38;100.00;102029.31;10587616;28;20487;-60
2021/11/14 06:59:38;;;;;;;76.32;35.35;;;;;;;8.31;100.00;102038.22;10586752;28;20052;-59
2021/11/14 07:04:41;;;;;;;94.78;38.78;;;;;;;8.47;100.00;102044.78;10587628;28;20058;-59
2021/11/14 07:09:44;;;;;;;96.90;39.00;;;;;;;8.39;100.00;102059.75;10587048;28;20400;-59
2021/11/14 07:14:47;;;;;;;88.80;35.42;;;;;;;8.49;100.00;102060.34;10587267;28;20055;-59
2021/11/14 07:19:50;;;;;;;90.38;36.72;;;;;;;8.31;100.00;102075.63;10586500;28;20419;-60
2021/11/14 07:24:52;;;;;;;91.80;37.33;;;;;;;8.34;100.00;102079.91;10586841;28;20054;-59
2021/11/14 07:29:55;;;;;;;99.70;39.38;;;;;;;8.22;100.00;102081.09;10586543;28;20058;-60
2021/11/14 07:34:57;;;;;;;98.82;38.88;;;;;;;8.52;100.00;102089.88;10585929;28;20047;-59
2021/11/14 07:39:59;;;;;;;110.10;39.85;;;;;;;8.68;100.00;102099.88;10585650;28;20051;-60
2021/11/14 07:45:02;;;;;;;100.90;39.40;;;;;;;8.56;100.00;102103.69;10585896;28;20059;-61
2021/11/14 07:50:05;;;;;;;99.10;37.80;;;;;;;8.55;100.00;102112.41;10585644;28;20400;-61
2021/11/14 07:55:08;;;;;;;66.10;32.55;;;;;;;8.80;100.00;102109.09;10585211;28;20558;-61
2021/11/14 08:00:16;;;;;;;92.28;36.67;;;;;;;8.47;100.00;102122.19;10585931;28;20047;-60
2021/11/14 08:05:19;;;;;;;79.47;33.90;;;;;;;8.48;100.00;102131.75;10566888;28;20411;-60
2021/11/14 08:10:22;;;;;;;88.60;36.70;;;;;;;8.60;100.00;102130.56;10583847;28;20059;-59
2021/11/14 08:15:25;;;;;;;76.55;34.25;;;;;;;8.43;100.00;102137.09;10584530;28;20043;-60
2021/11/14 08:20:28;;;;;;;90.70;35.85;;;;;;;8.66;100.00;102144.28;10584298;28;20063;-59
2021/11/14 08:25:30;;;;;;;70.57;34.25;;;;;;;8.71;100.00;102152.00;10584500;28;20058;-60
2021/11/14 08:30:33;;;;;;;84.43;37.40;;;;;;;8.81;100.00;102155.19;10583989;28;20044;-60
2021/11/14 08:35:35;;;;;;;90.93;36.45;;;;;;;8.68;100.00;102166.00;10583488;28;20476;-61
2021/11/14 08:40:39;;;;;;;64.03;30.55;;;;;;;8.82;100.00;102170.81;10583348;28;20047;-60
2021/11/14 08:45:42;;;;;;;71.07;34.15;;;;;;;8.81;100.00;102184.78;10583352;28;20050;-60
2021/11/14 08:50:46;;;;;;;80.07;35.72;;;;;;;8.73;100.00;102182.38;10583190;28;20047;-60
2021/11/14 08:55:55;;;;;;;76.97;35.60;;;;;;;8.80;100.00;102188.28;10582803;28;20491;-60
2021/11/14 09:01:07;;;;;;;68.28;35.75;;;;;;;8.58;100.00;102195.84;10583332;28;20127;-59
2021/11/14 09:06:10;;;;;;;72.28;33.38;;;;;;;8.94;100.00;102200.97;10582512;28;20112;-59
2021/11/14 09:11:12;;;;;;;69.03;33.97;;;;;;;8.66;100.00;102204.34;10582334;28;20048;-62
2021/11/14 09:16:14;;;;;;;78.78;36.15;;;;;;;8.84;100.00;102218.66;10582163;28;20495;-61
2021/11/14 09:21:17;;;;;;;72.50;33.65;;;;;;;8.61;100.00;102227.13;10582115;28;20051;-62
2021/11/14 09:26:20;;;;;;;70.05;34.85;;;;;;;8.82;100.00;102236.13;10581937;28;20078;-60
2021/11/14 09:31:23;;;;;;;65.35;34.75;;;;;;;8.72;100.00;102237.25;10581896;28;20044;-62
2021/11/14 09:36:32;;;;;;;70.72;35.22;;;;;;;8.82;100.00;102243.09;10563642;28;20044;-61
2021/11/14 09:41:39;;;;;;;68.10;31.33;;;;;;;8.90;100.00;102249.81;10582122;28;20052;-60
2021/11/14 09:46:56;;;;;;;74.55;32.95;;;;;;;8.99;100.00;102253.09;10564085;28;20044;-61
2021/11/14 09:52:01;;;;;;;76.32;34.13;;;;;;;8.92;100.00;102252.41;10581659;28;20058;-61
2021/11/14 09:57:04;;;;;;;66.82;32.80;;;;;;;8.98;100.00;102256.59;10581636;28;20051;-61
2021/11/14 10:02:07;;;;;;;66.70;33.60;;;;;;;8.89;100.00;102268.16;10563455;28;20113;-61
2021/11/14 10:07:14;;;;;;;65.05;32.92;;;;;;;8.96;100.00;102258.38;10581130;28;20093;-60
2021/11/14 10:12:23;;;;;;;67.82;34.03;;;;;;;9.09;100.00;102260.66;10563172;28;20407;-61
2021/11/14 10:17:27;;;;;;;57.72;30.65;;;;;;;8.90;100.00;102269.88;10581121;28;20048;-61
2021/11/14 10:22:29;;;;;;;53.17;30.48;;;;;;;9.16;100.00;102270.91;10580900;28;20043;-62
2021/11/14 10:27:32;;;;;;;52.08;29.95;;;;;;;9.24;100.00;102274.16;10580916;28;20395;-62
2021/11/14 10:32:35;;;;;;;55.67;31.63;;;;;;;9.08;100.00;102276.38;10583722;28;20389;-60
2021/11/14 10:37:43;;;;;;;61.50;33.42;;;;;;;9.19;100.00;102282.13;10588394;28;20055;-60
2021/11/14 10:42:50;;;;;;;63.53;32.88;;;;;;;9.42;100.00;102283.25;10588139;28;20480;-61
2021/11/14 10:48:05;;;;;;;60.45;32.67;;;;;;;9.19;100.00;102292.56;10588200;28;20051;-62
2021/11/14 10:53:10;;;;;;;51.22;28.83;;;;;;;9.13;100.00;102298.00;10570176;28;20054;-60
2021/11/14 10:58:14;;;;;;;57.28;31.83;;;;;;;9.43;100.00;102298.91;10588177;28;20143;-61
2021/11/14 11:03:17;;;;;;;57.97;31.10;;;;;;;9.61;100.00;102294.88;10587286;28;20058;-60
2021/11/14 11:08:21;;;;;;;51.35;29.42;;;;;;;9.55;100.00;102302.91;10587849;28;20040;-62
2021/11/14 11:13:31;;;;;;;51.60;30.50;;;;;;;9.51;100.00;102306.50;10586986;28;20047;-62
2021/11/14 11:18:34;;;;;;;53.15;30.65;;;;;;;9.55;100.00;102313.38;10587363;28;20044;-62
2021/11/14 11:23:45;;;;;;;57.17;29.02;;;;;;;9.73;100.00;102309.34;10586374;28;20070;-61
2021/11/14 11:28:48;;;;;;;63.97;31.13;;;;;;;9.69;100.00;102312.13;10570163;28;20054;-61
2021/11/14 11:33:55;;;;;;;65.82;29.90;;;;;;;9.71;100.00;102324.22;10585895;28;20074;-60
2021/11/14 11:38:57;;;;;;;52.50;28.33;;;;;;;9.77;100.00;102321.44;10586720;28;20062;-62
2021/11/14 11:44:00;;;;;;;60.15;30.85;;;;;;;9.63;100.00;102320.97;10585969;28;20048;-61
2021/11/14 11:49:05;;;;;;;62.00;30.67;;;;;;;9.64;100.00;102326.16;10585658;28;20047;-61
2021/11/14 11:54:12;;;;;;;67.47;32.08;;;;;;;9.88;100.00;102315.88;10585223;28;20518;-60
2021/11/14 11:59:17;;;;;;;60.95;31.10;;;;;;;9.71;100.00;102313.75;10584946;28;20048;-60
2021/11/14 12:04:32;;;;;;;61.47;29.73;;;;;;;9.83;100.00;102325.63;10567089;28;20384;-62
2021/11/14 12:09:53;;;;;;;58.72;31.33;;;;;;;9.90;100.00;102319.31;10566869;28;20039;-61
2021/11/14 12:15:16;;;;;;;62.37;31.50;;;;;;;10.08;100.00;102311.81;10584397;28;20065;-61
2021/11/14 12:20:40;;;;;;;61.10;33.10;;;;;;;10.00;100.00;102320.75;10584377;28;20048;-62
2021/11/14 12:25:46;;;;;;;59.30;33.05;;;;;;;10.14;100.00;102317.69;10584155;28;20487;-61
2021/11/14 12:30:57;;;;;;;60.40;30.80;;;;;;;10.21;100.00;102321.84;10584067;28;20059;-61
2021/11/14 12:36:09;;;;;;;61.10;30.60;;;;;;;10.25;100.00;102325.19;10566049;28;20044;-63
2021/11/14 12:41:12;;;;;;;57.53;31.48;;;;;;;10.00;100.00;102325.09;10583068;28;20453;-62
2021/11/14 12:46:21;;;;;;;56.35;29.60;;;;;;;10.27;100.00;102318.19;10583235;28;20506;-63
2021/11/14 12:51:28;;;;;;;49.78;29.20;;;;;;;10.15;100.00;102323.78;10565106;28;20126;-63
2021/11/14 12:56:40;;;;;;;49.83;25.50;;;;;;;10.01;100.00;102321.59;10564974;28;20050;-62
2021/11/14 13:02:14;;;;;;;49.13;27.52;;;;;;;10.14;100.00;102329.94;10582762;28;20089;-62
2021/11/14 13:07:29;;;;;;;60.97;30.30;;;;;;;10.13;100.00;102330.84;10564670;28;20082;-62
2021/11/14 13:12:31;;;;;;;57.22;29.92;;;;;;;10.06;100.00;102331.94;10564357;28;20054;-62
2021/11/14 13:17:33;;;;;;;73.20;30.90;;;;;;;10.17;100.00;102338.56;10582267;28;20047;-62
2021/11/14 13:22:36;;;;;;;65.88;32.65;;;;;;;10.10;100.00;102337.00;10581969;28;20391;-62
2021/11/14 13:27:38;;;;;;;62.50;31.58;;;;;;;10.09;100.00;102342.31;10582065;28;20441;-62
2021/11/14 13:32:41;;;;;;;68.78;31.70;;;;;;;10.09;100.00;102344.94;10582132;28;20039;-62
2021/11/14 13:37:44;;;;;;;63.10;30.73;;;;;;;10.07;100.00;102334.50;10581474;28;20050;-62
2021/11/14 13:42:48;;;;;;;65.03;29.45;;;;;;;9.92;100.00;102332.34;10581872;28;20062;-62
2021/11/14 13:48:01;;;;;;;63.08;30.88;;;;;;;10.36;100.00;102325.75;10563789;28;20485;-63
2021/11/14 13:53:03;;;;;;;62.10;30.80;;;;;;;10.54;100.00;102332.16;10581697;28;20047;-62
2021/11/14 13:58:06;;;;;;;62.20;29.75;;;;;;;10.45;100.00;102335.06;10581534;28;20050;-62
2021/11/14 14:03:21;;;;;;;65.90;32.10;;;;;;;10.29;100.00;102342.53;10581581;28;20047;-62
2021/11/14 14:08:33;;;;;;;59.42;29.65;;;;;;;10.26;100.00;102342.63;10586169;28;20100;-62
2021/11/14 14:13:37;;;;;;;61.28;31.23;;;;;;;9.97;100.00;102344.38;10589713;28;20055;-62
2021/11/14 14:18:40;;;;;;;52.95;27.77;;;;;;;9.91;100.00;102354.19;10571174;28;20088;-62
2021/11/14 14:23:42;;;;;;;56.13;28.55;;;;;;;9.94;100.00;102357.56;10571195;28;20048;-62
2021/11/14 14:28:45;;;;;;;60.95;30.45;;;;;;;9.98;100.00;102367.03;10570654;28;20126;-63
2021/11/14 14:34:01;;;;;;;60.08;29.73;;;;;;;9.98;100.00;102372.25;10588734;28;20043;-62
2021/11/14 14:39:07;;;;;;;58.17;29.52;;;;;;;9.88;100.00;102375.19;10588798;28;20043;-62
2021/11/14 14:44:10;;;;;;;50.72;27.65;;;;;;;9.86;100.00;102380.47;10588421;28;20409;-62
2021/11/14 14:49:18;;;;;;;59.20;31.35;;;;;;;9.66;100.00;102386.28;10588463;28;20043;-62
2021/11/14 14:54:25;;;;;;;53.00;28.60;;;;;;;9.82;100.00;102394.56;10569994;28;20078;-62
2021/11/14 14:59:31;;;;;;;54.67;28.55;;;;;;;9.62;100.00;102395.97;10588023;28;20051;-62
2021/11/14 15:04:41;;;;;;;54.80;26.90;;;;;;;9.59;100.00;102401.28;10569506;28;20055;-62
2021/11/14 15:09:58;;;;;;;50.55;25.23;;;;;;;9.62;100.00;102393.34;10569801;28;20043;-63
2021/11/14 15:15:13;;;;;;;46.65;25.85;;;;;;;9.59;100.00;102392.59;10587043;28;20373;-61
2021/11/14 15:20:19;;;;;;;47.20;26.35;;;;;;;9.39;100.00;102404.44;10586298;28;20407;-62
2021/11/14 15:25:34;;;;;;;44.92;24.92;;;;;;;9.44;100.00;102402.53;10586731;28;20394;-63
2021/11/14 15:30:42;;;;;;;52.83;26.83;;;;;;;9.56;100.00;102400.50;10586907;28;20048;-62
2021/11/14 15:35:44;;;;;;;48.00;27.75;;;;;;;9.37;100.00;102405.38;10586181;28;20044;-62
2021/11/14 15:40:48;;;;;;;56.80;30.08;;;;;;;9.35;100.00;102421.09;10585559;28;20496;-62
2021/11/14 15:45:50;;;;;;;55.75;30.13;;;;;;;9.38;100.00;102426.25;10568058;28;20044;-62
2021/11/14 15:50:53;;;;;;;53.47;30.08;;;;;;;9.25;100.00;102430.94;10585408;28;20376;-62
2021/11/14 15:55:57;;;;;;;50.25;29.77;;;;;;;9.19;100.00;102436.31;10585679;28;20093;-62
2021/11/14 16:01:00;;;;;;;49.13;30.20;;;;;;;9.32;100.00;102444.72;10585046;28;20054;-63
2021/11/14 16:06:03;;;;;;;50.83;27.30;;;;;;;9.19;100.00;102452.00;10567336;28;20078;-63
2021/11/14 16:11:05;;;;;;;46.15;26.42;;;;;;;9.03;100.00;102455.91;10584760;28;20040;-62
2021/11/14 16:16:08;;;;;;;41.35;26.27;;;;;;;9.22;100.00;102459.75;10584875;28;20054;-61
2021/11/14 16:21:12;;;;;;;44.63;27.73;;;;;;;9.13;100.00;102461.72;10584109;28;20483;-62
2021/11/14 16:26:15;;;;;;;42.30;24.92;;;;;;;9.16;100.00;102472.97;10585056;28;20055;-62
2021/11/14 16:31:18;;;;;;;40.88;26.08;;;;;;;9.10;100.00;102480.97;10565121;28;20043;-62
2021/11/14 16:36:20;;;;;;;45.70;27.95;;;;;;;8.98;100.00;102474.28;10583813;28;20184;-62
2021/11/14 16:41:22;;;;;;;42.20;26.77;;;;;;;9.13;100.00;102487.88;10565302;28;20051;-62
2021/11/14 16:46:25;;;;;;;43.55;26.42;;;;;;;9.17;100.00;102498.22;10583332;28;20044;-62
2021/11/14 16:51:29;;;;;;;47.28;29.67;;;;;;;9.18;100.00;102504.28;10583563;28;20048;-62
2021/11/14 16:56:32;;;;;;;40.85;25.67;;;;;;;9.12;100.00;102502.69;10583345;28;20044;-63
2021/11/14 17:01:34;;;;;;;48.33;28.23;;;;;;;9.18;100.00;102505.16;10583341;28;20117;-62
2021/11/14 17:06:37;;;;;;;45.25;28.45;;;;;;;9.00;100.00;102506.47;10565217;28;20047;-62
2021/11/14 17:11:39;;;;;;;43.50;26.92;;;;;;;9.10;100.00;102512.34;10582392;28;20040;-63
2021/11/14 17:16:42;;;;;;;44.08;28.05;;;;;;;8.93;100.00;102518.81;10582883;28;20376;-62
2021/11/14 17:21:44;;;;;;;46.65;28.20;;;;;;;8.94;100.00;102522.25;10563788;28;20044;-63
2021/11/14 17:26:47;;;;;;;43.42;27.15;;;;;;;8.91;100.00;102527.59;10581952;28;20506;-62
2021/11/14 17:31:49;;;;;;;45.47;27.10;;;;;;;8.90;100.00;102531.94;10581898;28;20051;-61
2021/11/14 17:36:52;;;;;;;40.00;24.58;;;;;;;9.04;100.00;102526.38;10563632;28;20048;-62
2021/11/14 17:41:54;;;;;;;48.08;30.05;;;;;;;8.66;100.00;102540.31;10588777;28;20056;-62
2021/11/14 17:46:56;;;;;;;46.00;27.60;;;;;;;8.87;100.00;102549.44;10596060;28;20050;-62
2021/11/14 17:51:59;;;;;;;44.78;28.55;;;;;;;9.06;100.00;102550.75;10596120;28;20051;-63
2021/11/14 17:57:02;;;;;;;57.13;32.17;;;;;;;8.90;100.00;102555.44;10595780;28;20044;-62
2021/11/14 18:02:05;;;;;;;68.10;35.75;;;;;;;8.77;100.00;102551.38;10595379;28;20043;-63
2021/11/14 18:07:08;;;;;;;50.70;28.58;;;;;;;9.04;100.00;102556.88;10577422;28;20048;-62
2021/11/14 18:12:11;;;;;;;54.00;30.83;;;;;;;8.79;100.00;102559.19;10595116;28;20395;-62
2021/11/14 18:17:14;;;;;;;62.78;33.90;;;;;;;8.67;100.00;102562.91;10577452;28;20043;-62
2021/11/14 18:22:16;;;;;;;61.97;35.03;;;;;;;8.79;100.00;102570.47;10595162;28;20047;-61
2021/11/14 18:27:18;;;;;;;64.55;34.08;;;;;;;8.77;100.00;102574.03;10595887;28;20048;-62
2021/11/14 18:32:21;;;;;;;60.70;34.92;;;;;;;8.83;100.00;102569.53;10594962;28;20040;-62
2021/11/14 18:37:23;;;;;;;63.63;34.90;;;;;;;8.74;100.00;102569.72;10594684;28;20054;-62
2021/11/14 18:42:26;;;;;;;64.00;32.85;;;;;;;8.64;100.00;102571.69;10594676;28;20050;-61
2021/11/14 18:47:28;;;;;;;56.65;34.55;;;;;;;8.71;100.00;102583.72;10594826;28;20125;-62
2021/11/14 18:52:30;;;;;;;62.13;36.63;;;;;;;8.76;100.00;102586.25;10591625;28;20039;-63
2021/11/14 18:57:33;;;;;;;60.55;33.70;;;;;;;8.65;100.00;102594.28;10569883;28;20040;-62
2021/11/14 19:02:35;;;;;;;69.55;36.60;;;;;;;8.71;100.00;102602.00;10588204;28;20062;-62
2021/11/14 19:07:38;;;;;;;59.30;34.67;;;;;;;8.64;100.00;102608.25;10587457;28;20517;-63
2021/11/14 19:12:42;;;;;;;60.05;34.78;;;;;;;8.72;100.00;102598.50;10587161;28;20399;-62
2021/11/14 19:17:45;;;;;;;59.25;33.70;;;;;;;8.70;100.00;102595.03;10569009;28;20053;-62
2021/11/14 19:22:49;;;;;;;53.17;31.38;;;;;;;8.80;100.00;102598.31;10586786;28;20050;-62
2021/11/14 19:27:52;;;;;;;50.20;30.63;;;;;;;8.69;100.00;102602.91;10568789;28;20047;-61
2021/11/14 19:32:59;;;;;;;53.67;32.50;;;;;;;8.63;100.00;102603.06;10569006;28;20073;-63
2021/11/14 19:38:03;;;;;;;60.75;33.60;;;;;;;8.62;100.00;102609.16;10585743;28;20064;-61
2021/11/14 19:43:07;;;;;;;62.13;33.78;;;;;;;8.46;100.00;102617.28;10567649;28;20491;-61
2021/11/14 19:48:10;;;;;;;58.35;32.33;;;;;;;8.62;100.00;102630.03;10568005;28;20127;-62
2021/11/14 19:53:15;;;;;;;57.42;30.48;;;;;;;8.58;100.00;102624.03;10585481;28;20047;-63
2021/11/14 19:58:17;;;;;;;57.88;32.55;;;;;;;8.47;100.00;102628.59;10585096;28;20488;-62
2021/11/14 20:03:19;;;;;;;61.00;34.00;;;;;;;8.47;100.00;102634.69;10566069;28;20044;-61
2021/11/14 20:08:22;;;;;;;55.80;32.53;;;;;;;8.38;100.00;102634.81;10584916;28;20396;-62
2021/11/14 20:13:24;;;;;;;56.47;32.28;;;;;;;8.54;100.00;102631.06;10584889;28;20101;-62
2021/11/14 20:18:27;;;;;;;56.38;31.75;;;;;;;8.59;100.00;102638.81;10584536;28;20047;-62
2021/11/14 20:23:30;;;;;;;58.60;32.55;;;;;;;8.48;100.00;102632.94;10566159;28;20499;-62
2021/11/14 20:28:33;;;;;;;58.47;32.83;;;;;;;8.54;100.00;102633.69;10584344;28;20054;-64
2021/11/14 20:33:36;;;;;;;54.38;32.67;;;;;;;8.27;100.00;102634.16;10583599;28;20044;-63
2021/11/14 20:38:39;;;;;;;55.75;33.50;;;;;;;8.35;100.00;102629.66;10583548;28;20066;-63
2021/11/14 20:43:42;;;;;;;63.38;34.22;;;;;;;8.43;100.00;102643.44;10583449;28;20040;-63
2021/11/14 20:48:44;;;;;;;60.70;33.55;;;;;;;8.36;100.00;102634.00;10583769;28;20055;-61
2021/11/14 20:53:46;;;;;;;58.72;32.80;;;;;;;8.34;100.00;102634.03;10583613;28;20050;-62
2021/11/14 20:58:49;;;;;;;56.28;32.42;;;;;;;8.28;100.00;102639.34;10583031;28;20130;-62
2021/11/14 21:03:51;;;;;;;52.95;31.17;;;;;;;8.44;100.00;102631.25;10582789;28;20055;-63
2021/11/14 21:08:53;;;;;;;52.42;30.42;;;;;;;8.41;100.00;102637.38;10582635;28;20445;-62
2021/11/14 21:13:56;;;;;;;56.00;30.73;;;;;;;8.44;100.00;102631.25;10582373;28;20514;-62
2021/11/14 21:18:58;;;;;;;60.97;34.40;;;;;;;8.30;100.00;102632.34;10563875;28;20049;-63
2021/11/14 21:24:01;;;;;;;54.20;31.17;;;;;;;8.47;100.00;102641.63;10582009;28;20043;-62
2021/11/14 21:29:04;;;;;;;56.13;30.88;;;;;;;8.40;100.00;102640.00;10582234;28;20059;-62
2021/11/14 21:34:21;;;;;;;56.38;32.00;;;;;;;8.08;100.00;102642.31;10582060;28;20050;-61
2021/11/14 21:39:23;;;;;;;55.20;28.67;;;;;;;8.40;100.00;102651.31;10566581;28;20054;-62
2021/11/14 21:44:26;;;;;;;52.47;30.50;;;;;;;8.16;100.00;102650.00;10581877;28;20048;-61
2021/11/14 21:49:28;;;;;;;49.03;28.80;;;;;;;8.18;100.00;102653.44;10581328;28;20043;-61
2021/11/14 21:54:31;;;;;;;59.88;30.50;;;;;;;8.10;100.00;102653.59;10581510;28;20046;-61
2021/11/14 21:59:36;;;;;;;50.35;27.33;;;;;;;8.25;100.00;102654.19;10582334;28;20052;-62
2021/11/14 22:04:39;;;;;;;44.22;23.70;;;;;;;8.12;100.00;102653.53;10581939;28;20056;-62
2021/11/14 22:09:41;;;;;;;42.65;22.65;;;;;;;8.15;100.00;102654.38;10563262;28;20044;-62
2021/11/14 22:14:44;;;;;;;37.17;22.85;;;;;;;8.02;100.00;102645.03;10582285;28;20043;-61
2021/11/14 22:19:47;;;;;;;34.08;20.55;;;;;;;7.98;100.00;102644.22;10581257;28;20040;-61
2021/11/14 22:24:50;;;;;;;36.83;20.27;;;;;;;8.11;100.00;102639.66;10581962;28;20048;-62
2021/11/14 22:29:52;;;;;;;32.22;20.70;;;;;;;7.94;100.00;102641.69;10587042;28;20043;-61
2021/11/14 22:34:54;;;;;;;31.88;19.63;;;;;;;8.13;100.00;102643.09;10588651;28;20040;-63
2021/11/14 22:39:57;;;;;;;32.78;20.27;;;;;;;7.93;100.00;102643.41;10588952;28;20047;-61
2021/11/14 22:44:59;;;;;;;43.65;23.10;;;;;;;7.86;100.00;102644.41;10588597;28;20407;-61
2021/11/14 22:50:02;;;;;;;36.50;20.67;;;;;;;7.93;100.00;102646.03;10588074;28;20415;-62